Enter the Airport ICAO Code

Search by Airport or City

Current Weather

LFPG | Charles de Gaulle Airport (Roissy Airport)

Paris, Île-de-France, France

Last Update 11 Minutes Ago

Mostly Cloudy Sky

Temperature of 17 ºC

Light to Moderate Winds from NorthEast

Temperature

17 ºC

Dew Point Temperature

10 ºC

Relative Humidity

63.54 %

Wind Direction

NorthEast (050º, Ranging from 030º to 090º)

Wind Velocity

15 km/h (08 kt)

Gusts

None

Visibility

Greater than 10 Kilometers

Sea Level Pressure

1029 hPa (Hectopascals)

Layers of Clouds

60% to 90% of Sky Covered from 792 mts (2600 ft) Above Ground Level.

30% to 60% of Sky Covered from 1006 mts (3300 ft) Above Ground Level.

METAR LFPG 211330Z 05008KT 030V090 9999 BKN026 SCT033 17/10 Q1029 NOSIG

Weather Forecast

LFPG | Charles de Gaulle Airport (Roissy Airport)

Paris, Île-de-France, France

Forecast valid for the next 28 Hours

From now on it is expected:

Partly Cloudy Sky

Moderate Winds from NorthEast

In 15 hours it is expected the begining of 2 hours with intermittent periods of:

Mist

Maximum Temperature

21 ºC in 24 Hours

Minimum Temperature

09 ºC in 15 Hours

TAF LFPG 211100Z 2112/2218 03010KT 9999 SCT045 TX21/2214Z TN09/2205Z PROB30 TEMPO 2205/2207 4500 BR